Darstellungsparameter: Aktuell verwendete Einstellungen:
Skalierung der Graphiken ... ?
xyx+y,   Skalierungsfaktor:      Skalierung: Modus: x, Faktor: 1
Darstellungszeitraum ... ?
Vom - - bis: - -   Zeitraum: 21.05.2022 - 21.05.2022
Min/Max/Avg-Anzeige ... ?
Zeige MMA aktuell
Zeige MMA Monat
Zeige MMA alles
Zeige --A aktuell
Zeige --A Monat
Zeige --A alles
Keine MMA-Anzeige
MMA:
Keine MMA-Graphiken
MMA-Basis: 21.05.2022 - 21.05.2022
Quicknavigation für Darstellung... ?
Tage:      1T, 2T, 3T, 5T -1T -2T -3T -5T +1T +2T +3T +5T
Wochen: 1W, 2W, 3W -1W -2W -3W +1W +2W +3W
Monate: 1M, 3M, 6M -1M -3M -6M +1M +3M +6M
Jahre:    1J, 3J, 5J, 10J -1J -3J -5J -10J +1J +3J +5J +10J
Nutze für die Darstellung ... ?
Originaldaten oder Mittelwerte auf ...
Stundenbasis Tagesbasis Wochenbasis
Monatsbasis Jahresbasis      Datenbasis: Original-Daten
Darstellen als:
Statistik (Auto) Statistik J:M      Darstellung:
Zur Graphik,    zurück zur Übersicht aller Sensoren.
 
Tabellarische Datenbersicht: ?
 
Sensor: Nr:Datum:Temp:Feuchte:Taupunkt:
Aussen-T/F 1 21-05-2022 00:00:00 14 C 91 % 12.56 C
2 21-05-2022 00:05:00 13.9 C 92 % 12.62 C
3 21-05-2022 00:10:00 13.8 C 90 % 12.19 C
4 21-05-2022 00:15:00 13.8 C 90 % 12.19 C
5 21-05-2022 00:20:00 13.7 C 90 % 12.09 C
6 21-05-2022 00:25:00 13.7 C 91 % 12.26 C
7 21-05-2022 00:30:00 13.6 C 89 % 11.82 C
8 21-05-2022 00:35:00 13.6 C 90 % 11.99 C
9 21-05-2022 00:40:00 13.5 C 89 % 11.72 C
10 21-05-2022 00:45:00 13.4 C 89 % 11.63 C
11 21-05-2022 00:50:00 13.4 C 89 % 11.63 C
12 21-05-2022 00:55:00 13.4 C 88 % 11.45 C
13 21-05-2022 01:00:00 13.3 C 87 % 11.18 C
14 21-05-2022 01:05:00 13.3 C 87 % 11.18 C
15 21-05-2022 01:10:00 13.1 C 87 % 10.99 C
16 21-05-2022 01:15:00 12.9 C 87 % 10.79 C
17 21-05-2022 01:20:00 12.8 C 87 % 10.69 C
18 21-05-2022 01:25:00 12.7 C 88 % 10.77 C
19 21-05-2022 01:30:00 12.5 C 88 % 10.57 C
20 21-05-2022 01:35:00 12.4 C 88 % 10.47 C
21 21-05-2022 01:40:00 12.3 C 89 % 10.54 C
22 21-05-2022 01:45:00 12.2 C 89 % 10.44 C
23 21-05-2022 01:50:00 12.1 C 89 % 10.34 C
24 21-05-2022 01:55:00 12.1 C 89 % 10.34 C
25 21-05-2022 02:00:00 12 C 90 % 10.41 C
Sensor: Nr:Datum:Temp:Feuchte:Taupunkt:
Aussen-T/F 26 21-05-2022 02:05:00 11.9 C 90 % 10.31 C
27 21-05-2022 02:10:00 11.8 C 90 % 10.21 C
28 21-05-2022 02:15:00 11.7 C 91 % 10.28 C
29 21-05-2022 02:20:00 11.7 C 91 % 10.28 C
30 21-05-2022 02:25:00 11.6 C 91 % 10.18 C
31 21-05-2022 02:30:00 11.4 C 91 % 9.98 C
32 21-05-2022 02:35:00 11.4 C 92 % 10.15 C
33 21-05-2022 02:40:00 11.3 C 92 % 10.05 C
34 21-05-2022 02:45:00 11.3 C 92 % 10.05 C
35 21-05-2022 02:50:00 11.2 C 92 % 9.95 C
36 21-05-2022 02:55:00 11.1 C 92 % 9.85 C
37 21-05-2022 03:00:00 11.1 C 92 % 9.85 C
38 21-05-2022 03:05:00 10.9 C 92 % 9.65 C
39 21-05-2022 03:10:00 10.9 C 93 % 9.81 C
40 21-05-2022 03:15:00 10.8 C 93 % 9.71 C
41 21-05-2022 03:20:00 10.8 C 93 % 9.71 C
42 21-05-2022 03:25:00 10.7 C 93 % 9.62 C
43 21-05-2022 03:30:00 10.7 C 93 % 9.62 C
44 21-05-2022 03:35:00 10.6 C 93 % 9.52 C
45 21-05-2022 03:40:00 10.6 C 94 % 9.68 C
46 21-05-2022 03:45:00 10.6 C 93 % 9.52 C
47 21-05-2022 03:50:00 10.6 C 94 % 9.68 C
48 21-05-2022 03:55:00 10.6 C 94 % 9.68 C
49 21-05-2022 04:00:00 10.6 C 94 % 9.68 C
50 21-05-2022 04:05:00 10.6 C 94 % 9.68 C
Sensor: Nr:Datum:Temp:Feuchte:Taupunkt:
Aussen-T/F 51 21-05-2022 04:10:00 10.7 C 94 % 9.77 C
52 21-05-2022 04:15:00 10.7 C 94 % 9.77 C
53 21-05-2022 04:20:00 10.8 C 94 % 9.87 C
54 21-05-2022 04:25:00 10.8 C 94 % 9.87 C
55 21-05-2022 04:30:00 10.9 C 93 % 9.81 C
56 21-05-2022 04:35:00 10.9 C 93 % 9.81 C
57 21-05-2022 04:40:00 10.9 C 93 % 9.81 C
58 21-05-2022 04:45:00 10.9 C 93 % 9.81 C
59 21-05-2022 04:50:00 10.9 C 92 % 9.65 C
60 21-05-2022 04:55:00 11 C 92 % 9.75 C
61 21-05-2022 05:00:00 11 C 92 % 9.75 C
62 21-05-2022 05:05:00 10.9 C 92 % 9.65 C
63 21-05-2022 05:10:00 10.9 C 92 % 9.65 C
64 21-05-2022 05:15:00 10.9 C 92 % 9.65 C
65 21-05-2022 05:20:00 10.8 C 92 % 9.55 C
66 21-05-2022 05:25:00 10.8 C 92 % 9.55 C
67 21-05-2022 05:30:00 10.8 C 92 % 9.55 C
68 21-05-2022 05:35:00 10.8 C 92 % 9.55 C
69 21-05-2022 05:40:00 10.7 C 92 % 9.45 C
70 21-05-2022 05:45:00 10.7 C 93 % 9.62 C
71 21-05-2022 05:50:00 10.6 C 92 % 9.36 C
72 21-05-2022 05:55:00 10.5 C 93 % 9.42 C
73 21-05-2022 06:00:00 10.4 C 93 % 9.32 C
74 21-05-2022 06:05:00 10.4 C 93 % 9.32 C
75 21-05-2022 06:10:00 10.4 C 93 % 9.32 C
Sensor: Nr:Datum:Temp:Feuchte:Taupunkt:
Aussen-T/F 76 21-05-2022 06:15:00 10.5 C 93 % 9.42 C
77 21-05-2022 06:20:00 10.5 C 93 % 9.42 C
78 21-05-2022 06:25:00 10.5 C 93 % 9.42 C
79 21-05-2022 06:30:00 10.5 C 93 % 9.42 C
80 21-05-2022 06:35:00 10.5 C 93 % 9.42 C
81 21-05-2022 06:40:00 10.6 C 93 % 9.52 C
82 21-05-2022 06:45:00 10.6 C 93 % 9.52 C
83 21-05-2022 06:50:00 10.6 C 93 % 9.52 C
84 21-05-2022 06:55:00 10.7 C 93 % 9.62 C
85 21-05-2022 07:00:00 10.9 C 93 % 9.81 C
86 21-05-2022 07:05:00 10.9 C 92 % 9.65 C
87 21-05-2022 07:10:00 11.1 C 92 % 9.85 C
88 21-05-2022 07:15:00 11.2 C 92 % 9.95 C
89 21-05-2022 07:20:00 11.2 C 92 % 9.95 C
90 21-05-2022 07:25:00 11.3 C 91 % 9.89 C
91 21-05-2022 07:30:00 11.4 C 91 % 9.98 C
92 21-05-2022 07:35:00 11.6 C 91 % 10.18 C
93 21-05-2022 07:40:00 11.6 C 91 % 10.18 C
94 21-05-2022 07:45:00 11.7 C 90 % 10.12 C
95 21-05-2022 07:50:00 11.8 C 90 % 10.21 C
96 21-05-2022 07:55:00 11.9 C 90 % 10.31 C
97 21-05-2022 08:00:00 11.9 C 89 % 10.15 C
98 21-05-2022 08:05:00 12 C 89 % 10.25 C
99 21-05-2022 08:10:00 12.1 C 89 % 10.34 C
100 21-05-2022 08:15:00 12.2 C 89 % 10.44 C
Sensor: Nr:Datum:Temp:Feuchte:Taupunkt:
Aussen-T/F 101 21-05-2022 08:20:00 12.4 C 88 % 10.47 C
102 21-05-2022 08:25:00 12.5 C 88 % 10.57 C
103 21-05-2022 08:30:00 12.6 C 88 % 10.67 C
104 21-05-2022 08:35:00 12.8 C 87 % 10.69 C
105 21-05-2022 08:40:00 13.3 C 86 % 11.01 C
106 21-05-2022 08:45:00 13.5 C 85 % 11.03 C
107 21-05-2022 08:50:00 13.7 C 85 % 11.23 C
108 21-05-2022 08:55:00 13.7 C 84 % 11.05 C
109 21-05-2022 09:00:00 13.8 C 84 % 11.15 C
110 21-05-2022 09:05:00 14 C 84 % 11.34 C
111 21-05-2022 09:10:00 14.1 C 84 % 11.44 C
112 21-05-2022 09:15:00 14.3 C 83 % 11.45 C
113 21-05-2022 09:20:00 14.4 C 83 % 11.55 C
114 21-05-2022 09:25:00 14.5 C 84 % 11.83 C
115 21-05-2022 09:30:00 14.5 C 80 % 11.09 C
116 21-05-2022 09:35:00 14.7 C 81 % 11.48 C
117 21-05-2022 09:40:00 14.8 C 82 % 11.76 C
118 21-05-2022 09:45:00 15 C 78 % 11.2 C
119 21-05-2022 09:50:00 15.1 C 78 % 11.3 C
120 21-05-2022 09:55:00 15.1 C 76 % 10.9 C
121 21-05-2022 10:00:00 15.2 C 76 % 11 C
122 21-05-2022 10:05:00 15.2 C 77 % 11.2 C
123 21-05-2022 10:10:00 15.3 C 77 % 11.3 C
124 21-05-2022 10:15:00 15.4 C 77 % 11.39 C
125 21-05-2022 10:20:00 15.6 C 78 % 11.78 C
Sensor: Nr:Datum:Temp:Feuchte:Taupunkt:
Aussen-T/F 126 21-05-2022 10:25:00 15.7 C 76 % 11.48 C
127 21-05-2022 10:30:00 15.8 C 76 % 11.58 C
128 21-05-2022 10:35:00 16.1 C 75 % 11.67 C
129 21-05-2022 10:40:00 16.3 C 73 % 11.46 C
130 21-05-2022 10:45:00 16.5 C 74 % 11.85 C
131 21-05-2022 10:50:00 16.7 C 73 % 11.84 C
132 21-05-2022 10:55:00 16.7 C 70 % 11.21 C
133 21-05-2022 11:00:00 16.7 C 75 % 12.25 C
134 21-05-2022 11:05:00 16.7 C 72 % 11.63 C
135 21-05-2022 11:10:00 16.8 C 72 % 11.73 C
136 21-05-2022 11:15:00 17.1 C 71 % 11.8 C
137 21-05-2022 11:20:00 17.3 C 73 % 12.42 C
138 21-05-2022 11:25:00 17.4 C 71 % 12.09 C
139 21-05-2022 11:30:00 17.5 C 71 % 12.19 C
140 21-05-2022 11:35:00 17.6 C 70 % 12.07 C
141 21-05-2022 11:40:00 17.5 C 71 % 12.19 C
142 21-05-2022 11:45:00 17.6 C 72 % 12.5 C
143 21-05-2022 11:50:00 17.7 C 71 % 12.38 C
144 21-05-2022 11:55:00 17.8 C 69 % 12.04 C
145 21-05-2022 12:00:00 17.9 C 70 % 12.35 C
146 21-05-2022 12:05:00 18.1 C 69 % 12.33 C
147 21-05-2022 12:10:00 18.2 C 69 % 12.42 C
148 21-05-2022 12:15:00 18.4 C 69 % 12.61 C
149 21-05-2022 12:20:00 18.5 C 65 % 11.8 C
150 21-05-2022 12:25:00 18.4 C 65 % 11.71 C
Sensor: Nr:Datum:Temp:Feuchte:Taupunkt:
Aussen-T/F 151 21-05-2022 12:30:00 18.4 C 65 % 11.71 C
152 21-05-2022 12:35:00 18.6 C 65 % 11.9 C
153 21-05-2022 12:40:00 18.8 C 64 % 11.85 C
154 21-05-2022 12:45:00 18.9 C 63 % 11.71 C
155 21-05-2022 12:50:00 19.1 C 64 % 12.14 C
156 21-05-2022 12:55:00 19.3 C 62 % 11.84 C
157 21-05-2022 13:00:00 19.4 C 61 % 11.69 C
158 21-05-2022 13:05:00 19.5 C 62 % 12.03 C
159 21-05-2022 13:10:00 19.4 C 60 % 11.44 C
160 21-05-2022 13:15:00 19.5 C 59 % 11.28 C
161 21-05-2022 13:20:00 19.3 C 57 % 10.58 C
162 21-05-2022 13:25:00 19.3 C 60 % 11.35 C
163 21-05-2022 13:30:00 19.4 C 60 % 11.44 C
164 21-05-2022 13:35:00 19.7 C 57 % 10.95 C
165 21-05-2022 13:40:00 19.8 C 58 % 11.3 C
166 21-05-2022 13:45:00 19.8 C 59 % 11.56 C
167 21-05-2022 13:50:00 19.7 C 57 % 10.95 C
168 21-05-2022 13:55:00 19.7 C 58 % 11.21 C
169 21-05-2022 14:00:00 19.8 C 58 % 11.3 C
170 21-05-2022 14:05:00 19.8 C 58 % 11.3 C
171 21-05-2022 14:10:00 19.7 C 55 % 10.41 C
172 21-05-2022 14:15:00 19.8 C 57 % 11.04 C
173 21-05-2022 14:20:00 19.8 C 55 % 10.51 C
174 21-05-2022 14:25:00 19.7 C 60 % 11.72 C
175 21-05-2022 14:30:00 19.7 C 55 % 10.41 C
Sensor: Nr:Datum:Temp:Feuchte:Taupunkt:
Aussen-T/F 176 21-05-2022 14:35:00 19.8 C 57 % 11.04 C
177 21-05-2022 14:40:00 19.9 C 55 % 10.6 C
178 21-05-2022 14:45:00 19.9 C 54 % 10.32 C
179 21-05-2022 14:50:00 20.1 C 55 % 10.78 C
180 21-05-2022 14:55:00 20.2 C 54 % 10.6 C
181 21-05-2022 15:00:00 20.3 C 55 % 10.97 C
182 21-05-2022 15:05:00 20.2 C 56 % 11.15 C
183 21-05-2022 15:10:00 20.2 C 55 % 10.88 C
184 21-05-2022 15:15:00 20.3 C 53 % 10.41 C
185 21-05-2022 15:20:00 20.3 C 51 % 9.84 C
186 21-05-2022 15:25:00 20.4 C 51 % 9.93 C
187 21-05-2022 15:30:00 20.7 C 54 % 11.07 C
188 21-05-2022 15:35:00 20.9 C 51 % 10.39 C
189 21-05-2022 15:40:00 20.9 C 55 % 11.53 C
190 21-05-2022 15:45:00 20.8 C 52 % 10.59 C
191 21-05-2022 15:50:00 20.9 C 55 % 11.53 C
192 21-05-2022 15:55:00 20.9 C 52 % 10.68 C
193 21-05-2022 16:00:00 21.1 C 52 % 10.87 C
194 21-05-2022 16:05:00 20.9 C 53 % 10.97 C
195 21-05-2022 16:10:00 20.9 C 53 % 10.97 C
196 21-05-2022 16:15:00 21.1 C 54 % 11.44 C
197 21-05-2022 16:20:00 21.1 C 51 % 10.58 C
198 21-05-2022 16:25:00 21.1 C 49 % 9.98 C
199 21-05-2022 16:30:00 21 C 50 % 10.19 C
200 21-05-2022 16:35:00 20.8 C 51 % 10.3 C
Sensor: Nr:Datum:Temp:Feuchte:Taupunkt:
Aussen-T/F 201 21-05-2022 16:40:00 20.8 C 51 % 10.3 C
202 21-05-2022 16:45:00 20.8 C 51 % 10.3 C
203 21-05-2022 16:50:00 21.1 C 53 % 11.15 C
204 21-05-2022 16:55:00 21.1 C 52 % 10.87 C
205 21-05-2022 17:00:00 20.8 C 52 % 10.59 C
206 21-05-2022 17:05:00 20.6 C 55 % 11.25 C
207 21-05-2022 17:10:00 20.6 C 54 % 10.97 C
208 21-05-2022 17:15:00 21.1 C 51 % 10.58 C
209 21-05-2022 17:20:00 21.5 C 52 % 11.24 C
210 21-05-2022 17:25:00 21.9 C 51 % 11.31 C
211 21-05-2022 17:30:00 21.9 C 50 % 11.01 C
212 21-05-2022 17:35:00 22 C 50 % 11.11 C
213 21-05-2022 17:40:00 22.1 C 49 % 10.89 C
214 21-05-2022 17:45:00 22.2 C 51 % 11.59 C
215 21-05-2022 17:50:00 22.4 C 50 % 11.47 C
216 21-05-2022 17:55:00 22.6 C 50 % 11.66 C
217 21-05-2022 18:00:00 22.7 C 50 % 11.75 C
218 21-05-2022 18:05:00 22.6 C 49 % 11.35 C
219 21-05-2022 18:10:00 22.6 C 47 % 10.72 C
220 21-05-2022 18:15:00 22.6 C 49 % 11.35 C
221 21-05-2022 18:20:00 22.7 C 49 % 11.44 C
222 21-05-2022 18:25:00 22.6 C 49 % 11.35 C
223 21-05-2022 18:30:00 22.3 C 48 % 10.77 C
224 21-05-2022 18:35:00 21.9 C 49 % 10.71 C
225 21-05-2022 18:40:00 21.4 C 49 % 10.25 C
Sensor: Nr:Datum:Temp:Feuchte:Taupunkt:
Aussen-T/F 226 21-05-2022 18:45:00 21.1 C 51 % 10.58 C
227 21-05-2022 18:50:00 21 C 51 % 10.48 C
228 21-05-2022 18:55:00 20.8 C 51 % 10.3 C
229 21-05-2022 19:00:00 20.7 C 54 % 11.07 C
230 21-05-2022 19:05:00 20.4 C 54 % 10.79 C
231 21-05-2022 19:10:00 20.3 C 56 % 11.24 C
232 21-05-2022 19:15:00 20.2 C 55 % 10.88 C
233 21-05-2022 19:20:00 20.1 C 56 % 11.06 C
234 21-05-2022 19:25:00 20.1 C 56 % 11.06 C
235 21-05-2022 19:30:00 19.9 C 56 % 10.87 C
236 21-05-2022 19:35:00 19.8 C 57 % 11.04 C
237 21-05-2022 19:40:00 19.8 C 57 % 11.04 C
238 21-05-2022 19:45:00 19.8 C 56 % 10.78 C
239 21-05-2022 19:50:00 19.7 C 58 % 11.21 C
240 21-05-2022 19:55:00 19.7 C 59 % 11.47 C
241 21-05-2022 20:00:00 19.6 C 64 % 12.61 C
242 21-05-2022 20:05:00 19.6 C 64 % 12.61 C
243 21-05-2022 20:10:00 19.6 C 70 % 13.98 C
244 21-05-2022 20:15:00 19.4 C 72 % 14.22 C
245 21-05-2022 20:20:00 19.2 C 73 % 14.25 C
246 21-05-2022 20:25:00 18.9 C 73 % 13.96 C
247 21-05-2022 20:30:00 18.7 C 74 % 13.97 C
248 21-05-2022 20:35:00 18.4 C 75 % 13.89 C
249 21-05-2022 20:40:00 18.2 C 76 % 13.9 C
250 21-05-2022 20:45:00 17.9 C 77 % 13.81 C
Sensor: Nr:Datum:Temp:Feuchte:Taupunkt:
Aussen-T/F 251 21-05-2022 20:50:00 17.6 C 76 % 13.32 C
252 21-05-2022 20:55:00 17.3 C 77 % 13.23 C
253 21-05-2022 21:00:00 17.1 C 78 % 13.24 C
254 21-05-2022 21:05:00 16.8 C 79 % 13.14 C
255 21-05-2022 21:10:00 16.7 C 80 % 13.23 C
256 21-05-2022 21:15:00 16.6 C 81 % 13.33 C
257 21-05-2022 21:20:00 16.4 C 81 % 13.13 C
258 21-05-2022 21:25:00 16.2 C 80 % 12.75 C
259 21-05-2022 21:30:00 16.1 C 80 % 12.65 C
260 21-05-2022 21:35:00 15.8 C 80 % 12.36 C
261 21-05-2022 21:40:00 15.7 C 81 % 12.45 C
262 21-05-2022 21:45:00 15.4 C 81 % 12.16 C
263 21-05-2022 21:50:00 15.2 C 82 % 12.15 C
264 21-05-2022 21:55:00 14.9 C 81 % 11.67 C
265 21-05-2022 22:00:00 14.7 C 82 % 11.66 C
266 21-05-2022 22:05:00 14.4 C 82 % 11.37 C
267 21-05-2022 22:10:00 14.2 C 83 % 11.36 C
268 21-05-2022 22:15:00 13.9 C 83 % 11.06 C
269 21-05-2022 22:20:00 13.8 C 84 % 11.15 C
270 21-05-2022 22:25:00 13.7 C 85 % 11.23 C
271 21-05-2022 22:30:00 13.5 C 85 % 11.03 C
272 21-05-2022 22:35:00 13.4 C 85 % 10.93 C
273 21-05-2022 22:40:00 13.3 C 86 % 11.01 C
274 21-05-2022 22:45:00 13.2 C 86 % 10.91 C
275 21-05-2022 22:50:00 13.1 C 87 % 10.99 C
Sensor: Nr:Datum:Temp:Feuchte:Taupunkt:
Aussen-T/F 276 21-05-2022 22:55:00 13 C 87 % 10.89 C
277 21-05-2022 23:00:00 12.9 C 87 % 10.79 C
278 21-05-2022 23:05:00 12.8 C 87 % 10.69 C
279 21-05-2022 23:10:00 12.8 C 88 % 10.86 C
280 21-05-2022 23:15:00 12.7 C 88 % 10.77 C
281 21-05-2022 23:20:00 12.6 C 88 % 10.67 C
282 21-05-2022 23:25:00 12.4 C 88 % 10.47 C
283 21-05-2022 23:30:00 12.3 C 88 % 10.37 C
284 21-05-2022 23:35:00 12.3 C 89 % 10.54 C
285 21-05-2022 23:40:00 12.2 C 89 % 10.44 C
286 21-05-2022 23:45:00 12.2 C 89 % 10.44 C
287 21-05-2022 23:50:00 12.1 C 90 % 10.51 C
288 21-05-2022 23:55:00 12 C 90 % 10.41 C

Legende:
   Min
   Max


Maximal/Minimal-Werte vom 21.05.2022 - 21.05.2022

Sensor Min Max Avg
Temp
(Aussen-T/F)
10.4 °C
21-05-2022  06:00:00
22.7 °C
21-05-2022  18:00:00
15.69 °C
Feuchte
(Aussen-T/F)
47 %
21-05-2022  18:10:00
94 %
21-05-2022  03:40:00
75.65 %
Taupunkt
(Aussen-T/F)
9.32 C
21-05-2022  06:00:00
14.25 C
21-05-2022  20:20:00
10.95 C

Die Daten stammen von einer Davis Vantage Pro 2 Wetter-Station und werden unter Linux mit der Software wview2wettercgi und aufbereitet. Alle Angaben erfolgen ohne Gewähr für ihre Vollständigkeit oder Richtigkeit.
Kontakt: Rainer Krienke krienke@uni-koblenz.de . Meine Webseiten an der Uni Koblenz oder privat.
Version: $Revision: 0.78 $